Time;durP1;ratioP1;P1;durP2;ratioP2;P2;SDS_P1;SDS_P2;PMS_P1;PMS_P2;Temp;Humidity;BMP_temperature;BMP_pressure;BME280_temperature;BME280_humidity;BME280_pressure;Samples;Min_cycle;Max_cycle;Signal;HPM_P1;HPM_P2
2024/04/15 20:00:40;;;;;;;3.43;2.13;;;;;;;;;;5409897;25;78245;-57
2024/04/15 20:03:05;;;;;;;0.65;0.65;;;;;;;;;;5405687;25;78966;-55
2024/04/15 20:05:30;;;;;;;4.37;1.20;;;;;;;;;;5402439;26;79081;-54
2024/04/15 20:07:56;;;;;;;0.33;0.33;;;;;;;;;;5406210;26;78881;-55
2024/04/15 20:10:21;;;;;;;1.20;0.50;;;;;;;;;;5398674;26;78819;-55
2024/04/15 20:12:46;;;;;;;1.10;0.50;;;;;;;;;;5405409;26;79230;-52
2024/04/15 20:15:11;;;;;;;0.90;0.70;;;;;;;;;;5405925;25;78995;-55
2024/04/15 20:17:45;;;;;;;0.63;0.47;;;;;;;;;;5392225;26;82392;-68
2024/04/15 20:20:14;;;;;;;1.73;0.82;;;;;;;;;;5400566;26;81732;-56
2024/04/15 20:22:40;;;;;;;3.63;0.43;;;;;;;;;;5403155;26;80453;-58
2024/04/15 20:25:05;;;;;;;0.80;0.37;;;;;;;;;;5394582;26;79393;-54
2024/04/15 20:27:30;;;;;;;3.43;0.37;;;;;;;;;;5403669;26;79420;-54
2024/04/15 20:29:56;;;;;;;2.40;0.63;;;;;;;;;;5401571;25;79246;-56
2024/04/15 20:32:21;;;;;;;1.10;0.73;;;;;;;;;;5398557;26;79128;-56
2024/04/15 20:34:46;;;;;;;2.67;0.30;;;;;;;;;;5401273;26;79147;-56
2024/04/15 20:37:11;;;;;;;0.87;0.33;;;;;;;;;;5396562;26;80535;-57
2024/04/15 20:39:37;;;;;;;6.70;0.50;;;;;;;;;;5400484;26;79407;-56
2024/04/15 20:42:02;;;;;;;0.70;0.50;;;;;;;;;;5403779;26;79166;-56
2024/04/15 20:44:27;;;;;;;0.80;0.60;;;;;;;;;;5400682;26;79158;-60
2024/04/15 20:46:52;;;;;;;0.90;0.67;;;;;;;;;;5398810;26;78763;-58
2024/04/15 20:49:18;;;;;;;9.67;1.10;;;;;;;;;;5404899;26;79682;-56
2024/04/15 20:51:43;;;;;;;1.20;0.70;;;;;;;;;;5401261;26;80130;-55
2024/04/15 20:54:08;;;;;;;1.93;0.87;;;;;;;;;;5388552;26;79685;-55
2024/04/15 20:56:33;;;;;;;1.00;0.60;;;;;;;;;;5398336;26;79060;-51
2024/04/15 20:58:59;;;;;;;0.90;0.53;;;;;;;;;;5407799;26;79517;-53
2024/04/15 21:01:24;;;;;;;3.50;0.77;;;;;;;;;;5400699;26;79208;-55
2024/04/15 21:03:49;;;;;;;1.70;0.70;;;;;;;;;;5412059;26;79907;-54
2024/04/15 21:06:15;;;;;;;5.97;0.68;;;;;;;;;;5405677;25;79193;-51
2024/04/15 21:08:40;;;;;;;0.88;0.70;;;;;;;;;;5402636;26;79305;-59
2024/04/15 21:11:05;;;;;;;3.20;0.70;;;;;;;;;;5397838;26;79487;-54
2024/04/15 21:13:30;;;;;;;2.00;0.83;;;;;;;;;;5392091;25;79916;-54
2024/04/15 21:15:56;;;;;;;0.63;0.40;;;;;;;;;;5390108;25;79803;-55
2024/04/15 21:18:21;;;;;;;1.60;0.80;;;;;;;;;;5397315;25;79078;-52
2024/04/15 21:20:46;;;;;;;15.80;1.10;;;;;;;;;;5389912;26;79995;-53
2024/04/15 21:23:12;;;;;;;2.97;0.67;;;;;;;;;;5389901;26;80144;-58
2024/04/15 21:25:37;;;;;;;3.40;0.60;;;;;;;;;;5390084;26;79791;-55
2024/04/15 21:28:02;;;;;;;1.30;0.40;;;;;;;;;;5392903;25;79036;-55
2024/04/15 21:30:28;;;;;;;6.63;1.20;;;;;;;;;;5394837;26;79137;-55
2024/04/15 21:32:53;;;;;;;2.07;0.60;;;;;;;;;;5391682;26;79598;-53
2024/04/15 21:35:19;;;;;;;2.57;1.27;;;;;;;;;;5387768;26;79019;-57
2024/04/15 21:37:45;;;;;;;4.80;0.90;;;;;;;;;;5385672;26;80499;-57
2024/04/15 21:40:10;;;;;;;0.77;0.57;;;;;;;;;;5389834;26;78842;-58
2024/04/15 21:42:35;;;;;;;2.70;0.93;;;;;;;;;;5394448;26;78913;-57
2024/04/15 21:45:00;;;;;;;4.80;1.23;;;;;;;;;;5387999;26;79080;-58
2024/04/15 21:47:25;;;;;;;3.43;1.20;;;;;;;;;;5387847;26;79793;-54
2024/04/15 21:49:51;;;;;;;7.17;1.07;;;;;;;;;;5383117;26;79060;-52
2024/04/15 21:52:16;;;;;;;3.90;0.60;;;;;;;;;;5385546;26;79778;-50
2024/04/15 21:54:41;;;;;;;4.70;1.17;;;;;;;;;;5382985;26;79051;-54
2024/04/15 21:57:06;;;;;;;0.57;0.50;;;;;;;;;;5387048;26;79293;-56
2024/04/15 21:59:32;;;;;;;0.70;0.40;;;;;;;;;;5392199;26;79223;-54
2024/04/15 22:01:57;;;;;;;0.20;0.20;;;;;;;;;;5391684;26;79783;-56
2024/04/15 22:04:22;;;;;;;0.77;0.67;;;;;;;;;;5384490;26;79071;-56
2024/04/15 22:06:47;;;;;;;1.47;0.60;;;;;;;;;;5388894;26;79410;-57
2024/04/15 22:09:12;;;;;;;1.33;0.70;;;;;;;;;;5382084;26;79178;-57
2024/04/15 22:11:38;;;;;;;4.17;1.07;;;;;;;;;;5394594;25;79206;-57
2024/04/15 22:14:03;;;;;;;3.90;0.87;;;;;;;;;;5394481;25;78850;-56
2024/04/15 22:16:29;;;;;;;5.67;0.57;;;;;;;;;;5391896;26;79340;-53
2024/04/15 22:18:54;;;;;;;0.90;0.70;;;;;;;;;;5384168;26;81070;-53
2024/04/15 22:21:19;;;;;;;2.47;0.57;;;;;;;;;;5385712;26;80015;-54
2024/04/15 22:23:45;;;;;;;1.10;0.90;;;;;;;;;;5394911;26;78825;-54
2024/04/15 22:26:10;;;;;;;2.10;0.80;;;;;;;;;;5391929;26;79358;-53
2024/04/15 22:28:35;;;;;;;1.80;1.00;;;;;;;;;;5394407;26;79301;-57
2024/04/15 22:31:00;;;;;;;1.83;1.03;;;;;;;;;;5395767;26;80110;-54
2024/04/15 22:33:26;;;;;;;1.40;0.60;;;;;;;;;;5391647;26;79517;-55
2024/04/15 22:35:51;;;;;;;0.90;0.40;;;;;;;;;;5383008;26;79341;-57
2024/04/15 22:38:17;;;;;;;7.60;1.07;;;;;;;;;;5382504;26;79407;-59
2024/04/15 22:40:42;;;;;;;4.40;0.70;;;;;;;;;;5387535;26;79899;-58
2024/04/15 22:43:07;;;;;;;1.00;0.37;;;;;;;;;;5390485;26;80014;-56
2024/04/15 22:45:33;;;;;;;3.20;0.70;;;;;;;;;;5390724;26;79617;-55
2024/04/15 22:47:58;;;;;;;2.80;0.40;;;;;;;;;;5391164;26;81550;-56
2024/04/15 22:50:23;;;;;;;4.60;0.97;;;;;;;;;;5383025;26;79309;-53
2024/04/15 22:52:49;;;;;;;2.27;0.73;;;;;;;;;;5391488;26;79013;-56
2024/04/15 22:55:14;;;;;;;4.60;0.40;;;;;;;;;;5389076;26;79362;-56
2024/04/15 22:57:39;;;;;;;0.90;0.50;;;;;;;;;;5381024;25;81058;-58
2024/04/15 23:00:05;;;;;;;1.30;0.67;;;;;;;;;;5390152;25;80497;-54
2024/04/15 23:02:30;;;;;;;1.70;0.77;;;;;;;;;;5387225;26;79559;-58
2024/04/15 23:04:55;;;;;;;2.57;0.60;;;;;;;;;;5384700;26;80009;-53
2024/04/15 23:07:21;;;;;;;2.90;0.98;;;;;;;;;;5391248;25;80088;-55
2024/04/15 23:09:46;;;;;;;0.73;0.57;;;;;;;;;;5386290;26;79235;-54
2024/04/15 23:12:11;;;;;;;0.20;0.20;;;;;;;;;;5393746;26;78834;-54
2024/04/15 23:14:36;;;;;;;9.53;0.70;;;;;;;;;;5388264;26;78995;-54
2024/04/15 23:17:02;;;;;;;2.77;0.80;;;;;;;;;;5392457;25;79395;-54
2024/04/15 23:19:27;;;;;;;6.43;0.97;;;;;;;;;;5391409;26;79700;-56
2024/04/15 23:21:52;;;;;;;1.67;0.77;;;;;;;;;;5387578;26;80148;-52
2024/04/15 23:24:17;;;;;;;1.70;0.77;;;;;;;;;;5390384;26;78932;-58
2024/04/15 23:26:43;;;;;;;2.17;0.67;;;;;;;;;;5385337;25;79215;-55
2024/04/15 23:29:08;;;;;;;1.67;0.90;;;;;;;;;;5396274;26;79618;-53
2024/04/15 23:31:33;;;;;;;1.97;0.63;;;;;;;;;;5390545;26;78935;-54
2024/04/15 23:33:58;;;;;;;5.40;0.70;;;;;;;;;;5391559;26;79101;-55
2024/04/15 23:36:23;;;;;;;5.33;0.63;;;;;;;;;;5386172;26;79332;-56
2024/04/15 23:38:49;;;;;;;1.40;0.50;;;;;;;;;;5390680;26;79394;-54
2024/04/15 23:41:14;;;;;;;1.23;0.77;;;;;;;;;;5384355;26;79544;-56
2024/04/15 23:43:39;;;;;;;1.50;0.90;;;;;;;;;;5386454;26;78992;-53
2024/04/15 23:46:04;;;;;;;2.57;0.50;;;;;;;;;;5384617;26;79699;-54
2024/04/15 23:48:30;;;;;;;0.73;0.60;;;;;;;;;;5388628;26;78933;-57
2024/04/15 23:50:55;;;;;;;1.50;0.77;;;;;;;;;;5380783;26;79126;-56
2024/04/15 23:53:21;;;;;;;1.47;0.70;;;;;;;;;;5385952;26;79258;-54
2024/04/15 23:55:46;;;;;;;0.70;0.40;;;;;;;;;;5396454;26;79258;-54
2024/04/15 23:58:11;;;;;;;0.60;0.50;;;;;;;;;;5391012;26;80372;-56
